sensor_id;sensor_type;location;lat;lon;timestamp;P1;durP1;ratioP1;P2;durP2;ratioP2
7515;SDS011;3799;47.184;8.538;2023-02-08T00:01:18;22.95;;;13.75;;
7515;SDS011;3799;47.184;8.538;2023-02-08T00:03:47;21.15;;;11.48;;
7515;SDS011;3799;47.184;8.538;2023-02-08T00:06:17;23.52;;;12.45;;
7515;SDS011;3799;47.184;8.538;2023-02-08T00:08:44;27.05;;;14.30;;
7515;SDS011;3799;47.184;8.538;2023-02-08T00:11:12;25.58;;;12.48;;
7515;SDS011;3799;47.184;8.538;2023-02-08T00:13:39;26.52;;;13.15;;
7515;SDS011;3799;47.184;8.538;2023-02-08T00:16:07;26.85;;;14.57;;
7515;SDS011;3799;47.184;8.538;2023-02-08T00:18:36;26.88;;;13.43;;
7515;SDS011;3799;47.184;8.538;2023-02-08T00:21:07;26.20;;;13.88;;
7515;SDS011;3799;47.184;8.538;2023-02-08T00:23:39;25.90;;;13.43;;
7515;SDS011;3799;47.184;8.538;2023-02-08T00:26:07;26.95;;;13.18;;
7515;SDS011;3799;47.184;8.538;2023-02-08T00:28:34;26.80;;;13.38;;
7515;SDS011;3799;47.184;8.538;2023-02-08T00:31:02;22.88;;;13.20;;
7515;SDS011;3799;47.184;8.538;2023-02-08T00:33:40;23.17;;;12.95;;
7515;SDS011;3799;47.184;8.538;2023-02-08T00:36:09;26.10;;;12.20;;
7515;SDS011;3799;47.184;8.538;2023-02-08T00:38:37;24.80;;;13.85;;
7515;SDS011;3799;47.184;8.538;2023-02-08T00:41:04;27.40;;;13.60;;
7515;SDS011;3799;47.184;8.538;2023-02-08T00:43:31;23.23;;;12.73;;
7515;SDS011;3799;47.184;8.538;2023-02-08T00:45:59;26.58;;;14.00;;
7515;SDS011;3799;47.184;8.538;2023-02-08T00:48:26;22.52;;;12.77;;
7515;SDS011;3799;47.184;8.538;2023-02-08T00:50:58;25.77;;;14.05;;
7515;SDS011;3799;47.184;8.538;2023-02-08T00:53:31;23.88;;;12.10;;
7515;SDS011;3799;47.184;8.538;2023-02-08T00:58:28;28.05;;;12.55;;
7515;SDS011;3799;47.184;8.538;2023-02-08T01:00:55;26.25;;;13.35;;
7515;SDS011;3799;47.184;8.538;2023-02-08T01:03:23;23.70;;;13.00;;
7515;SDS011;3799;47.184;8.538;2023-02-08T01:05:51;28.50;;;12.63;;
7515;SDS011;3799;47.184;8.538;2023-02-08T01:08:19;23.77;;;12.38;;
7515;SDS011;3799;47.184;8.538;2023-02-08T01:10:47;28.90;;;13.07;;
7515;SDS011;3799;47.184;8.538;2023-02-08T01:13:14;24.35;;;13.20;;
7515;SDS011;3799;47.184;8.538;2023-02-08T01:15:53;26.85;;;13.32;;
7515;SDS011;3799;47.184;8.538;2023-02-08T01:18:20;24.88;;;12.50;;
7515;SDS011;3799;47.184;8.538;2023-02-08T01:21:09;22.80;;;10.60;;
7515;SDS011;3799;47.184;8.538;2023-02-08T01:23:41;27.13;;;12.32;;
7515;SDS011;3799;47.184;8.538;2023-02-08T01:26:10;23.38;;;12.20;;
7515;SDS011;3799;47.184;8.538;2023-02-08T01:28:44;26.33;;;12.88;;
7515;SDS011;3799;47.184;8.538;2023-02-08T01:31:13;27.35;;;13.07;;
7515;SDS011;3799;47.184;8.538;2023-02-08T01:33:44;26.83;;;13.55;;
7515;SDS011;3799;47.184;8.538;2023-02-08T01:36:14;27.55;;;13.52;;
7515;SDS011;3799;47.184;8.538;2023-02-08T01:38:43;28.40;;;13.07;;
7515;SDS011;3799;47.184;8.538;2023-02-08T01:41:44;26.33;;;12.90;;
7515;SDS011;3799;47.184;8.538;2023-02-08T01:46:45;25.77;;;12.10;;
7515;SDS011;3799;47.184;8.538;2023-02-08T01:49:18;22.42;;;12.07;;
7515;SDS011;3799;47.184;8.538;2023-02-08T01:51:58;23.80;;;12.30;;
7515;SDS011;3799;47.184;8.538;2023-02-08T01:54:33;25.67;;;12.52;;
7515;SDS011;3799;47.184;8.538;2023-02-08T01:57:08;23.75;;;11.20;;
7515;SDS011;3799;47.184;8.538;2023-02-08T01:59:38;22.05;;;11.60;;
7515;SDS011;3799;47.184;8.538;2023-02-08T02:02:13;25.92;;;11.77;;
7515;SDS011;3799;47.184;8.538;2023-02-08T02:04:46;23.73;;;11.30;;
7515;SDS011;3799;47.184;8.538;2023-02-08T02:07:15;24.00;;;11.35;;
7515;SDS011;3799;47.184;8.538;2023-02-08T02:09:46;23.63;;;11.88;;
7515;SDS011;3799;47.184;8.538;2023-02-08T02:12:25;25.42;;;12.45;;
7515;SDS011;3799;47.184;8.538;2023-02-08T02:14:52;24.80;;;11.73;;
7515;SDS011;3799;47.184;8.538;2023-02-08T02:17:20;24.42;;;11.25;;
7515;SDS011;3799;47.184;8.538;2023-02-08T02:23:10;21.05;;;10.80;;
7515;SDS011;3799;47.184;8.538;2023-02-08T02:48:46;22.52;;;10.88;;
7515;SDS011;3799;47.184;8.538;2023-02-08T02:54:28;25.08;;;11.55;;
7515;SDS011;3799;47.184;8.538;2023-02-08T02:57:01;20.58;;;10.30;;
7515;SDS011;3799;47.184;8.538;2023-02-08T02:59:33;23.02;;;10.75;;
7515;SDS011;3799;47.184;8.538;2023-02-08T03:02:03;22.33;;;11.05;;
7515;SDS011;3799;47.184;8.538;2023-02-08T03:10:05;23.33;;;10.52;;
7515;SDS011;3799;47.184;8.538;2023-02-08T03:13:04;23.15;;;11.00;;
7515;SDS011;3799;47.184;8.538;2023-02-08T03:16:08;21.98;;;10.80;;
7515;SDS011;3799;47.184;8.538;2023-02-08T03:21:33;21.80;;;10.73;;
7515;SDS011;3799;47.184;8.538;2023-02-08T03:32:51;21.45;;;11.23;;
7515;SDS011;3799;47.184;8.538;2023-02-08T03:35:30;21.48;;;10.25;;
7515;SDS011;3799;47.184;8.538;2023-02-08T03:38:03;21.60;;;9.38;;
7515;SDS011;3799;47.184;8.538;2023-02-08T03:40:39;19.25;;;9.90;;
7515;SDS011;3799;47.184;8.538;2023-02-08T03:43:13;25.35;;;10.68;;
7515;SDS011;3799;47.184;8.538;2023-02-08T03:48:37;22.95;;;10.63;;
7515;SDS011;3799;47.184;8.538;2023-02-08T03:51:07;16.98;;;9.07;;
7515;SDS011;3799;47.184;8.538;2023-02-08T03:53:36;21.90;;;10.13;;
7515;SDS011;3799;47.184;8.538;2023-02-08T03:56:07;23.27;;;10.95;;
7515;SDS011;3799;47.184;8.538;2023-02-08T03:58:51;22.98;;;10.48;;
7515;SDS011;3799;47.184;8.538;2023-02-08T04:01:26;20.67;;;8.77;;
7515;SDS011;3799;47.184;8.538;2023-02-08T04:04:01;21.85;;;10.30;;
7515;SDS011;3799;47.184;8.538;2023-02-08T04:06:28;23.05;;;11.20;;
7515;SDS011;3799;47.184;8.538;2023-02-08T04:08:56;24.15;;;10.98;;
7515;SDS011;3799;47.184;8.538;2023-02-08T04:11:29;21.25;;;11.00;;
7515;SDS011;3799;47.184;8.538;2023-02-08T04:13:56;22.92;;;10.07;;
7515;SDS011;3799;47.184;8.538;2023-02-08T04:16:23;20.60;;;10.25;;
7515;SDS011;3799;47.184;8.538;2023-02-08T04:18:50;23.60;;;11.35;;
7515;SDS011;3799;47.184;8.538;2023-02-08T04:21:21;20.25;;;9.48;;
7515;SDS011;3799;47.184;8.538;2023-02-08T04:23:48;21.08;;;10.43;;
7515;SDS011;3799;47.184;8.538;2023-02-08T04:26:16;22.08;;;8.88;;
7515;SDS011;3799;47.184;8.538;2023-02-08T04:28:44;21.00;;;10.73;;
7515;SDS011;3799;47.184;8.538;2023-02-08T04:31:11;20.75;;;9.88;;
7515;SDS011;3799;47.184;8.538;2023-02-08T04:33:38;21.17;;;9.15;;
7515;SDS011;3799;47.184;8.538;2023-02-08T04:36:06;24.48;;;10.98;;
7515;SDS011;3799;47.184;8.538;2023-02-08T04:38:33;22.45;;;10.57;;
7515;SDS011;3799;47.184;8.538;2023-02-08T04:41:11;21.17;;;9.65;;
7515;SDS011;3799;47.184;8.538;2023-02-08T04:43:38;23.10;;;9.82;;
7515;SDS011;3799;47.184;8.538;2023-02-08T04:46:13;25.90;;;9.57;;
7515;SDS011;3799;47.184;8.538;2023-02-08T04:48:46;21.00;;;9.88;;
7515;SDS011;3799;47.184;8.538;2023-02-08T04:51:16;23.38;;;9.60;;
7515;SDS011;3799;47.184;8.538;2023-02-08T04:53:44;22.45;;;10.85;;
7515;SDS011;3799;47.184;8.538;2023-02-08T04:56:11;20.65;;;10.32;;
7515;SDS011;3799;47.184;8.538;2023-02-08T04:58:38;25.15;;;10.00;;
7515;SDS011;3799;47.184;8.538;2023-02-08T05:01:06;20.75;;;9.57;;
7515;SDS011;3799;47.184;8.538;2023-02-08T05:03:34;19.27;;;8.90;;
7515;SDS011;3799;47.184;8.538;2023-02-08T05:06:01;23.05;;;10.35;;
7515;SDS011;3799;47.184;8.538;2023-02-08T05:08:29;28.25;;;10.48;;
7515;SDS011;3799;47.184;8.538;2023-02-08T05:10:59;22.05;;;9.88;;
7515;SDS011;3799;47.184;8.538;2023-02-08T05:13:26;22.08;;;10.02;;
7515;SDS011;3799;47.184;8.538;2023-02-08T05:15:53;20.90;;;10.30;;
7515;SDS011;3799;47.184;8.538;2023-02-08T05:18:20;22.70;;;10.35;;
7515;SDS011;3799;47.184;8.538;2023-02-08T05:20:57;22.45;;;9.60;;
7515;SDS011;3799;47.184;8.538;2023-02-08T05:23:26;21.75;;;10.45;;
7515;SDS011;3799;47.184;8.538;2023-02-08T05:25:53;22.10;;;10.50;;
7515;SDS011;3799;47.184;8.538;2023-02-08T05:28:20;21.05;;;9.40;;
7515;SDS011;3799;47.184;8.538;2023-02-08T05:30:48;19.13;;;9.68;;
7515;SDS011;3799;47.184;8.538;2023-02-08T05:33:15;21.52;;;10.40;;
7515;SDS011;3799;47.184;8.538;2023-02-08T05:35:44;22.73;;;9.77;;
7515;SDS011;3799;47.184;8.538;2023-02-08T05:38:17;20.80;;;9.25;;
7515;SDS011;3799;47.184;8.538;2023-02-08T05:40:45;21.50;;;10.05;;
7515;SDS011;3799;47.184;8.538;2023-02-08T05:43:13;24.45;;;9.93;;
7515;SDS011;3799;47.184;8.538;2023-02-08T05:45:40;24.92;;;10.65;;
7515;SDS011;3799;47.184;8.538;2023-02-08T05:48:07;20.63;;;9.52;;
7515;SDS011;3799;47.184;8.538;2023-02-08T05:50:34;19.83;;;9.25;;
7515;SDS011;3799;47.184;8.538;2023-02-08T05:53:02;22.67;;;10.30;;
7515;SDS011;3799;47.184;8.538;2023-02-08T05:55:29;15.60;;;8.27;;
7515;SDS011;3799;47.184;8.538;2023-02-08T05:57:57;22.00;;;10.23;;
7515;SDS011;3799;47.184;8.538;2023-02-08T06:00:24;22.33;;;9.70;;
7515;SDS011;3799;47.184;8.538;2023-02-08T06:02:52;20.38;;;9.75;;
7515;SDS011;3799;47.184;8.538;2023-02-08T06:05:19;20.83;;;10.15;;
7515;SDS011;3799;47.184;8.538;2023-02-08T06:07:46;19.67;;;9.82;;
7515;SDS011;3799;47.184;8.538;2023-02-08T06:10:14;21.60;;;9.65;;
7515;SDS011;3799;47.184;8.538;2023-02-08T06:12:42;23.67;;;10.10;;
7515;SDS011;3799;47.184;8.538;2023-02-08T06:15:09;20.63;;;9.23;;
7515;SDS011;3799;47.184;8.538;2023-02-08T06:17:36;21.45;;;9.82;;
7515;SDS011;3799;47.184;8.538;2023-02-08T06:20:07;18.98;;;8.93;;
7515;SDS011;3799;47.184;8.538;2023-02-08T06:22:35;23.35;;;9.63;;
7515;SDS011;3799;47.184;8.538;2023-02-08T06:25:02;20.67;;;10.10;;
7515;SDS011;3799;47.184;8.538;2023-02-08T06:27:30;18.27;;;8.75;;
7515;SDS011;3799;47.184;8.538;2023-02-08T06:29:57;20.27;;;9.32;;
7515;SDS011;3799;47.184;8.538;2023-02-08T06:32:24;22.00;;;10.20;;
7515;SDS011;3799;47.184;8.538;2023-02-08T06:34:52;20.70;;;10.27;;
7515;SDS011;3799;47.184;8.538;2023-02-08T06:37:19;20.10;;;8.98;;
7515;SDS011;3799;47.184;8.538;2023-02-08T06:39:49;17.90;;;9.02;;
7515;SDS011;3799;47.184;8.538;2023-02-08T06:42:29;19.30;;;9.70;;
7515;SDS011;3799;47.184;8.538;2023-02-08T06:44:57;20.55;;;10.05;;
7515;SDS011;3799;47.184;8.538;2023-02-08T06:47:27;19.17;;;9.55;;
7515;SDS011;3799;47.184;8.538;2023-02-08T06:49:56;21.90;;;9.60;;
7515;SDS011;3799;47.184;8.538;2023-02-08T06:52:23;19.25;;;9.45;;
7515;SDS011;3799;47.184;8.538;2023-02-08T06:54:50;17.95;;;9.75;;
7515;SDS011;3799;47.184;8.538;2023-02-08T06:57:17;20.83;;;8.82;;
7515;SDS011;3799;47.184;8.538;2023-02-08T06:59:46;19.70;;;9.45;;
7515;SDS011;3799;47.184;8.538;2023-02-08T07:02:16;19.80;;;9.45;;
7515;SDS011;3799;47.184;8.538;2023-02-08T07:04:46;19.63;;;9.77;;
7515;SDS011;3799;47.184;8.538;2023-02-08T07:07:14;22.58;;;9.57;;
7515;SDS011;3799;47.184;8.538;2023-02-08T07:09:42;21.45;;;9.32;;
7515;SDS011;3799;47.184;8.538;2023-02-08T07:12:10;19.45;;;8.80;;
7515;SDS011;3799;47.184;8.538;2023-02-08T07:14:38;20.55;;;9.70;;
7515;SDS011;3799;47.184;8.538;2023-02-08T07:17:07;23.58;;;10.25;;
7515;SDS011;3799;47.184;8.538;2023-02-08T07:19:35;18.55;;;9.88;;
7515;SDS011;3799;47.184;8.538;2023-02-08T07:22:04;26.55;;;10.57;;
7515;SDS011;3799;47.184;8.538;2023-02-08T07:24:35;24.63;;;10.32;;
7515;SDS011;3799;47.184;8.538;2023-02-08T07:27:04;19.65;;;8.90;;
7515;SDS011;3799;47.184;8.538;2023-02-08T07:29:32;21.75;;;9.95;;
7515;SDS011;3799;47.184;8.538;2023-02-08T07:32:00;21.55;;;9.43;;
7515;SDS011;3799;47.184;8.538;2023-02-08T07:34:28;24.77;;;10.32;;
7515;SDS011;3799;47.184;8.538;2023-02-08T07:36:56;25.02;;;9.90;;
7515;SDS011;3799;47.184;8.538;2023-02-08T07:39:26;24.30;;;10.07;;
7515;SDS011;3799;47.184;8.538;2023-02-08T07:41:54;21.20;;;9.73;;
7515;SDS011;3799;47.184;8.538;2023-02-08T07:44:21;19.13;;;9.40;;
7515;SDS011;3799;47.184;8.538;2023-02-08T07:46:49;18.40;;;8.65;;
7515;SDS011;3799;47.184;8.538;2023-02-08T07:49:19;19.83;;;10.00;;
7515;SDS011;3799;47.184;8.538;2023-02-08T07:51:46;21.17;;;9.38;;
7515;SDS011;3799;47.184;8.538;2023-02-08T07:54:13;19.02;;;9.60;;
7515;SDS011;3799;47.184;8.538;2023-02-08T07:56:41;19.25;;;9.77;;
7515;SDS011;3799;47.184;8.538;2023-02-08T07:59:08;20.23;;;9.52;;
7515;SDS011;3799;47.184;8.538;2023-02-08T08:01:46;18.48;;;8.95;;
7515;SDS011;3799;47.184;8.538;2023-02-08T08:04:16;23.80;;;9.48;;
7515;SDS011;3799;47.184;8.538;2023-02-08T08:06:45;21.83;;;9.65;;
7515;SDS011;3799;47.184;8.538;2023-02-08T08:09:15;19.40;;;9.57;;
7515;SDS011;3799;47.184;8.538;2023-02-08T08:11:42;21.83;;;10.20;;
7515;SDS011;3799;47.184;8.538;2023-02-08T08:14:10;25.30;;;10.35;;
7515;SDS011;3799;47.184;8.538;2023-02-08T08:16:54;19.70;;;9.52;;
7515;SDS011;3799;47.184;8.538;2023-02-08T08:19:21;19.38;;;9.45;;
7515;SDS011;3799;47.184;8.538;2023-02-08T08:21:49;18.55;;;9.23;;
7515;SDS011;3799;47.184;8.538;2023-02-08T08:24:16;18.60;;;9.85;;
7515;SDS011;3799;47.184;8.538;2023-02-08T08:26:43;18.90;;;9.48;;
7515;SDS011;3799;47.184;8.538;2023-02-08T08:29:10;23.20;;;9.25;;
7515;SDS011;3799;47.184;8.538;2023-02-08T08:31:39;20.83;;;9.25;;
7515;SDS011;3799;47.184;8.538;2023-02-08T08:34:09;20.92;;;10.38;;
7515;SDS011;3799;47.184;8.538;2023-02-08T08:36:38;18.25;;;8.75;;
7515;SDS011;3799;47.184;8.538;2023-02-08T08:39:05;24.38;;;11.10;;
7515;SDS011;3799;47.184;8.538;2023-02-08T08:41:32;17.98;;;9.27;;
7515;SDS011;3799;47.184;8.538;2023-02-08T08:44:02;25.90;;;9.38;;
7515;SDS011;3799;47.184;8.538;2023-02-08T08:46:29;19.27;;;9.05;;
7515;SDS011;3799;47.184;8.538;2023-02-08T08:48:56;18.95;;;9.00;;
7515;SDS011;3799;47.184;8.538;2023-02-08T08:51:25;23.98;;;9.70;;
7515;SDS011;3799;47.184;8.538;2023-02-08T08:53:52;18.67;;;9.13;;
7515;SDS011;3799;47.184;8.538;2023-02-08T08:56:20;17.60;;;9.63;;
7515;SDS011;3799;47.184;8.538;2023-02-08T08:58:48;22.27;;;8.95;;
7515;SDS011;3799;47.184;8.538;2023-02-08T09:01:14;20.50;;;8.90;;
7515;SDS011;3799;47.184;8.538;2023-02-08T09:03:42;20.13;;;8.80;;
7515;SDS011;3799;47.184;8.538;2023-02-08T09:06:11;21.52;;;9.85;;
7515;SDS011;3799;47.184;8.538;2023-02-08T09:08:41;20.52;;;10.68;;
7515;SDS011;3799;47.184;8.538;2023-02-08T09:11:15;22.88;;;9.50;;
7515;SDS011;3799;47.184;8.538;2023-02-08T09:13:42;18.90;;;9.40;;
7515;SDS011;3799;47.184;8.538;2023-02-08T09:16:11;18.52;;;9.35;;
7515;SDS011;3799;47.184;8.538;2023-02-08T09:18:41;22.33;;;10.25;;
7515;SDS011;3799;47.184;8.538;2023-02-08T09:21:15;22.17;;;9.20;;
7515;SDS011;3799;47.184;8.538;2023-02-08T09:23:47;20.80;;;9.68;;
7515;SDS011;3799;47.184;8.538;2023-02-08T09:26:15;23.17;;;9.57;;
7515;SDS011;3799;47.184;8.538;2023-02-08T09:28:43;23.38;;;10.18;;
7515;SDS011;3799;47.184;8.538;2023-02-08T09:31:17;19.05;;;8.68;;
7515;SDS011;3799;47.184;8.538;2023-02-08T09:33:50;20.67;;;10.00;;
7515;SDS011;3799;47.184;8.538;2023-02-08T09:36:18;18.60;;;9.18;;
7515;SDS011;3799;47.184;8.538;2023-02-08T09:38:52;20.15;;;9.50;;
7515;SDS011;3799;47.184;8.538;2023-02-08T09:47:36;21.90;;;9.30;;
7515;SDS011;3799;47.184;8.538;2023-02-08T09:50:18;23.63;;;9.57;;
7515;SDS011;3799;47.184;8.538;2023-02-08T09:53:18;21.60;;;9.32;;
7515;SDS011;3799;47.184;8.538;2023-02-08T09:55:51;17.08;;;8.23;;
7515;SDS011;3799;47.184;8.538;2023-02-08T09:58:34;18.42;;;8.38;;
7515;SDS011;3799;47.184;8.538;2023-02-08T10:01:12;20.58;;;9.52;;
7515;SDS011;3799;47.184;8.538;2023-02-08T10:03:46;20.30;;;10.02;;
7515;SDS011;3799;47.184;8.538;2023-02-08T10:06:38;20.75;;;9.60;;
7515;SDS011;3799;47.184;8.538;2023-02-08T10:09:10;20.10;;;9.43;;
7515;SDS011;3799;47.184;8.538;2023-02-08T10:11:44;21.75;;;9.35;;
7515;SDS011;3799;47.184;8.538;2023-02-08T10:17:46;21.10;;;9.10;;
7515;SDS011;3799;47.184;8.538;2023-02-08T10:26:01;16.90;;;8.00;;
7515;SDS011;3799;47.184;8.538;2023-02-08T10:34:45;20.08;;;9.57;;
7515;SDS011;3799;47.184;8.538;2023-02-08T10:37:17;19.27;;;9.48;;
7515;SDS011;3799;47.184;8.538;2023-02-08T10:39:59;21.05;;;9.43;;
7515;SDS011;3799;47.184;8.538;2023-02-08T10:42:57;16.60;;;8.25;;
7515;SDS011;3799;47.184;8.538;2023-02-08T10:46:06;17.38;;;8.82;;
7515;SDS011;3799;47.184;8.538;2023-02-08T10:48:53;17.92;;;8.23;;
7515;SDS011;3799;47.184;8.538;2023-02-08T10:51:33;20.98;;;9.85;;
7515;SDS011;3799;47.184;8.538;2023-02-08T10:54:03;18.83;;;8.85;;
7515;SDS011;3799;47.184;8.538;2023-02-08T10:56:36;21.25;;;9.30;;
7515;SDS011;3799;47.184;8.538;2023-02-08T10:59:27;16.30;;;8.70;;
7515;SDS011;3799;47.184;8.538;2023-02-08T11:02:19;22.98;;;8.75;;
7515;SDS011;3799;47.184;8.538;2023-02-08T11:05:05;19.00;;;8.77;;
7515;SDS011;3799;47.184;8.538;2023-02-08T11:07:40;20.05;;;9.43;;
7515;SDS011;3799;47.184;8.538;2023-02-08T11:12:54;18.10;;;9.73;;
7515;SDS011;3799;47.184;8.538;2023-02-08T11:15:36;18.05;;;9.40;;
7515;SDS011;3799;47.184;8.538;2023-02-08T11:18:26;22.00;;;8.77;;
7515;SDS011;3799;47.184;8.538;2023-02-08T11:21:48;18.83;;;9.13;;
7515;SDS011;3799;47.184;8.538;2023-02-08T11:24:45;15.55;;;8.05;;
7515;SDS011;3799;47.184;8.538;2023-02-08T11:27:38;19.75;;;9.15;;
7515;SDS011;3799;47.184;8.538;2023-02-08T11:30:21;18.13;;;8.73;;
7515;SDS011;3799;47.184;8.538;2023-02-08T11:36:05;19.92;;;9.07;;
7515;SDS011;3799;47.184;8.538;2023-02-08T11:38:40;21.35;;;9.02;;
7515;SDS011;3799;47.184;8.538;2023-02-08T11:41:15;18.58;;;9.02;;
7515;SDS011;3799;47.184;8.538;2023-02-08T11:43:55;19.65;;;9.13;;
7515;SDS011;3799;47.184;8.538;2023-02-08T11:46:29;16.27;;;9.00;;
7515;SDS011;3799;47.184;8.538;2023-02-08T11:49:03;21.67;;;9.52;;
7515;SDS011;3799;47.184;8.538;2023-02-08T11:51:32;19.55;;;8.93;;
7515;SDS011;3799;47.184;8.538;2023-02-08T11:54:02;18.90;;;9.00;;
7515;SDS011;3799;47.184;8.538;2023-02-08T11:56:34;17.42;;;9.27;;
7515;SDS011;3799;47.184;8.538;2023-02-08T11:59:03;19.25;;;8.63;;
7515;SDS011;3799;47.184;8.538;2023-02-08T12:01:43;18.45;;;8.70;;
7515;SDS011;3799;47.184;8.538;2023-02-08T12:04:14;17.95;;;9.23;;
7515;SDS011;3799;47.184;8.538;2023-02-08T12:06:54;18.30;;;8.48;;
7515;SDS011;3799;47.184;8.538;2023-02-08T12:43:40;17.08;;;8.23;;
7515;SDS011;3799;47.184;8.538;2023-02-08T12:51:51;19.73;;;9.07;;
7515;SDS011;3799;47.184;8.538;2023-02-08T12:54:40;22.75;;;9.25;;
7515;SDS011;3799;47.184;8.538;2023-02-08T12:57:16;20.85;;;8.93;;
7515;SDS011;3799;47.184;8.538;2023-02-08T12:59:50;21.33;;;9.25;;
7515;SDS011;3799;47.184;8.538;2023-02-08T13:02:34;19.92;;;9.93;;
7515;SDS011;3799;47.184;8.538;2023-02-08T13:05:15;18.92;;;9.38;;
7515;SDS011;3799;47.184;8.538;2023-02-08T13:07:47;18.25;;;8.25;;
7515;SDS011;3799;47.184;8.538;2023-02-08T13:10:21;18.70;;;8.45;;
7515;SDS011;3799;47.184;8.538;2023-02-08T13:12:58;20.13;;;9.27;;
7515;SDS011;3799;47.184;8.538;2023-02-08T13:15:40;18.27;;;9.02;;
7515;SDS011;3799;47.184;8.538;2023-02-08T13:18:13;19.58;;;9.35;;
7515;SDS011;3799;47.184;8.538;2023-02-08T13:20:52;19.95;;;8.40;;
7515;SDS011;3799;47.184;8.538;2023-02-08T13:23:33;21.63;;;9.10;;
7515;SDS011;3799;47.184;8.538;2023-02-08T13:26:24;18.45;;;9.07;;
7515;SDS011;3799;47.184;8.538;2023-02-08T13:28:54;20.75;;;9.60;;
7515;SDS011;3799;47.184;8.538;2023-02-08T13:31:46;20.50;;;8.40;;
7515;SDS011;3799;47.184;8.538;2023-02-08T13:34:20;19.27;;;9.40;;
7515;SDS011;3799;47.184;8.538;2023-02-08T13:37:18;19.02;;;8.93;;
7515;SDS011;3799;47.184;8.538;2023-02-08T13:40:04;19.70;;;8.68;;
7515;SDS011;3799;47.184;8.538;2023-02-08T13:42:49;22.33;;;9.73;;
7515;SDS011;3799;47.184;8.538;2023-02-08T13:45:31;18.40;;;9.02;;
7515;SDS011;3799;47.184;8.538;2023-02-08T13:48:06;21.90;;;9.10;;
7515;SDS011;3799;47.184;8.538;2023-02-08T13:53:15;19.50;;;9.05;;
7515;SDS011;3799;47.184;8.538;2023-02-08T13:58:35;24.30;;;9.63;;
7515;SDS011;3799;47.184;8.538;2023-02-08T14:06:45;17.45;;;7.72;;
7515;SDS011;3799;47.184;8.538;2023-02-08T14:09:24;19.10;;;8.90;;
7515;SDS011;3799;47.184;8.538;2023-02-08T14:12:11;19.45;;;9.43;;
7515;SDS011;3799;47.184;8.538;2023-02-08T14:15:05;21.13;;;9.20;;
7515;SDS011;3799;47.184;8.538;2023-02-08T14:17:41;22.85;;;8.93;;
7515;SDS011;3799;47.184;8.538;2023-02-08T14:23:21;17.98;;;8.65;;
7515;SDS011;3799;47.184;8.538;2023-02-08T14:25:54;19.77;;;8.77;;
7515;SDS011;3799;47.184;8.538;2023-02-08T14:28:31;19.60;;;9.05;;
7515;SDS011;3799;47.184;8.538;2023-02-08T14:31:09;19.70;;;9.00;;
7515;SDS011;3799;47.184;8.538;2023-02-08T14:33:51;19.48;;;9.05;;
7515;SDS011;3799;47.184;8.538;2023-02-08T14:39:20;22.92;;;9.73;;
7515;SDS011;3799;47.184;8.538;2023-02-08T14:41:58;18.63;;;9.30;;
7515;SDS011;3799;47.184;8.538;2023-02-08T14:47:04;21.23;;;9.13;;
7515;SDS011;3799;47.184;8.538;2023-02-08T14:49:51;18.85;;;9.30;;
7515;SDS011;3799;47.184;8.538;2023-02-08T14:52:55;21.73;;;8.77;;
7515;SDS011;3799;47.184;8.538;2023-02-08T14:55:36;23.17;;;9.88;;
7515;SDS011;3799;47.184;8.538;2023-02-08T14:58:21;20.90;;;9.73;;
7515;SDS011;3799;47.184;8.538;2023-02-08T15:00:56;18.70;;;8.85;;
7515;SDS011;3799;47.184;8.538;2023-02-08T15:03:28;17.90;;;8.35;;
7515;SDS011;3799;47.184;8.538;2023-02-08T15:09:14;19.75;;;9.60;;
7515;SDS011;3799;47.184;8.538;2023-02-08T15:11:57;20.17;;;10.57;;
7515;SDS011;3799;47.184;8.538;2023-02-08T15:14:34;19.70;;;8.57;;
7515;SDS011;3799;47.184;8.538;2023-02-08T15:17:02;20.58;;;8.40;;
7515;SDS011;3799;47.184;8.538;2023-02-08T15:19:32;20.98;;;8.73;;
7515;SDS011;3799;47.184;8.538;2023-02-08T15:22:26;20.52;;;9.27;;
7515;SDS011;3799;47.184;8.538;2023-02-08T15:24:58;21.83;;;9.55;;
7515;SDS011;3799;47.184;8.538;2023-02-08T15:27:48;21.73;;;9.27;;
7515;SDS011;3799;47.184;8.538;2023-02-08T15:30:24;22.20;;;9.60;;
7515;SDS011;3799;47.184;8.538;2023-02-08T15:32:59;20.05;;;9.40;;
7515;SDS011;3799;47.184;8.538;2023-02-08T15:35:30;20.50;;;9.07;;
7515;SDS011;3799;47.184;8.538;2023-02-08T15:38:00;18.05;;;9.10;;
7515;SDS011;3799;47.184;8.538;2023-02-08T15:40:32;16.90;;;8.50;;
7515;SDS011;3799;47.184;8.538;2023-02-08T15:43:18;18.15;;;9.35;;
7515;SDS011;3799;47.184;8.538;2023-02-08T15:45:54;19.92;;;9.10;;
7515;SDS011;3799;47.184;8.538;2023-02-08T15:48:27;21.17;;;9.43;;
7515;SDS011;3799;47.184;8.538;2023-02-08T15:50:55;23.48;;;9.57;;
7515;SDS011;3799;47.184;8.538;2023-02-08T15:53:23;20.30;;;8.68;;
7515;SDS011;3799;47.184;8.538;2023-02-08T15:55:56;21.63;;;10.20;;
7515;SDS011;3799;47.184;8.538;2023-02-08T15:58:39;21.70;;;9.68;;
7515;SDS011;3799;47.184;8.538;2023-02-08T16:01:16;18.48;;;9.82;;
7515;SDS011;3799;47.184;8.538;2023-02-08T16:03:46;20.83;;;9.25;;
7515;SDS011;3799;47.184;8.538;2023-02-08T16:06:36;24.83;;;10.15;;
7515;SDS011;3799;47.184;8.538;2023-02-08T16:09:06;20.73;;;9.23;;
7515;SDS011;3799;47.184;8.538;2023-02-08T16:11:45;26.23;;;9.45;;
7515;SDS011;3799;47.184;8.538;2023-02-08T16:14:17;19.10;;;9.13;;
7515;SDS011;3799;47.184;8.538;2023-02-08T16:16:55;20.38;;;9.25;;
7515;SDS011;3799;47.184;8.538;2023-02-08T16:19:24;20.42;;;9.30;;
7515;SDS011;3799;47.184;8.538;2023-02-08T16:21:55;20.48;;;9.60;;
7515;SDS011;3799;47.184;8.538;2023-02-08T16:24:41;18.33;;;8.38;;
7515;SDS011;3799;47.184;8.538;2023-02-08T16:27:25;19.70;;;9.57;;
7515;SDS011;3799;47.184;8.538;2023-02-08T16:29:55;19.00;;;9.25;;
7515;SDS011;3799;47.184;8.538;2023-02-08T16:32:28;23.80;;;9.23;;
7515;SDS011;3799;47.184;8.538;2023-02-08T16:34:58;21.75;;;10.73;;
7515;SDS011;3799;47.184;8.538;2023-02-08T16:37:36;18.63;;;9.48;;
7515;SDS011;3799;47.184;8.538;2023-02-08T16:43:23;22.02;;;8.95;;
7515;SDS011;3799;47.184;8.538;2023-02-08T16:48:52;20.38;;;10.30;;
7515;SDS011;3799;47.184;8.538;2023-02-08T16:51:24;20.85;;;8.85;;
7515;SDS011;3799;47.184;8.538;2023-02-08T16:53:54;22.65;;;9.80;;
7515;SDS011;3799;47.184;8.538;2023-02-08T16:56:27;18.50;;;8.07;;
7515;SDS011;3799;47.184;8.538;2023-02-08T16:58:54;20.02;;;8.95;;
7515;SDS011;3799;47.184;8.538;2023-02-08T17:01:22;22.08;;;9.05;;
7515;SDS011;3799;47.184;8.538;2023-02-08T17:03:50;19.15;;;8.93;;
7515;SDS011;3799;47.184;8.538;2023-02-08T17:06:26;20.45;;;9.77;;
7515;SDS011;3799;47.184;8.538;2023-02-08T17:08:59;17.83;;;8.65;;
7515;SDS011;3799;47.184;8.538;2023-02-08T17:11:28;20.88;;;8.93;;
7515;SDS011;3799;47.184;8.538;2023-02-08T17:13:56;16.83;;;8.73;;
7515;SDS011;3799;47.184;8.538;2023-02-08T17:16:25;24.65;;;10.10;;
7515;SDS011;3799;47.184;8.538;2023-02-08T17:18:55;22.63;;;9.18;;
7515;SDS011;3799;47.184;8.538;2023-02-08T17:21:39;21.20;;;8.85;;
7515;SDS011;3799;47.184;8.538;2023-02-08T17:24:07;22.17;;;10.20;;
7515;SDS011;3799;47.184;8.538;2023-02-08T17:26:41;19.55;;;8.30;;
7515;SDS011;3799;47.184;8.538;2023-02-08T17:29:09;22.42;;;9.52;;
7515;SDS011;3799;47.184;8.538;2023-02-08T17:31:38;22.15;;;9.75;;
7515;SDS011;3799;47.184;8.538;2023-02-08T17:34:07;20.35;;;8.43;;
7515;SDS011;3799;47.184;8.538;2023-02-08T17:36:34;20.95;;;8.32;;
7515;SDS011;3799;47.184;8.538;2023-02-08T17:39:08;18.38;;;9.05;;
7515;SDS011;3799;47.184;8.538;2023-02-08T17:41:43;17.20;;;8.98;;
7515;SDS011;3799;47.184;8.538;2023-02-08T17:44:10;22.45;;;9.25;;
7515;SDS011;3799;47.184;8.538;2023-02-08T17:46:41;19.10;;;8.85;;
7515;SDS011;3799;47.184;8.538;2023-02-08T17:49:10;22.70;;;10.13;;
7515;SDS011;3799;47.184;8.538;2023-02-08T17:51:37;22.33;;;9.38;;
7515;SDS011;3799;47.184;8.538;2023-02-08T17:54:04;15.20;;;8.23;;
7515;SDS011;3799;47.184;8.538;2023-02-08T17:56:35;21.15;;;9.10;;
7515;SDS011;3799;47.184;8.538;2023-02-08T17:59:02;21.10;;;9.43;;
7515;SDS011;3799;47.184;8.538;2023-02-08T18:01:32;20.73;;;8.60;;
7515;SDS011;3799;47.184;8.538;2023-02-08T18:03:59;19.45;;;9.20;;